Weyauwega, WI (54983)

2:08 AM CDT on July 28, 2016 (GMT -0500)
Waupaca Municipal | | Change Station

Elev 827 ft 44.33 °N, 89.02 °W | Updated 13 minutes ago

Mostly Cloudy
Mostly Cloudy
68 °F
Feels Like 68 °F
N
0
Wind Variable Wind from North

Today
High -- | Low -- °F
--% Chance of Precip.
Yesterday
High -- | Low -- °F
Precip. -- in
Pressure 29.97 in
Visibility 10.0 miles
Clouds Scattered Clouds 400 ft
Scattered Clouds 3800 ft
Mostly Cloudy 11000 ft
Dew Point 67 °F
Humidity 99%
Rainfall 0.00 in
Snow Depth Not available.
5:39 AM 8:24 PM
Waning Crescent, 35% visible
METAR KPCZ 280655Z AUTO 00000KT 10SM SCT004 SCT038 BKN110 20/20 A2997 RMK AO2 T01970195
Pressure 29.97 in
Visibility 10.0 miles
Clouds Scattered Clouds 400 ft
Scattered Clouds 3800 ft
Mostly Cloudy 11000 ft
Dew Point 67 °F
Humidity 99%
Rainfall 0.00 in
Snow Depth Not available.
5:39 AM 8:24 PM
Waning Crescent, 35% visible
METAR KPCZ 280655Z AUTO 00000KT 10SM SCT004 SCT038 BKN110 20/20 A2997 RMK AO2 T01970195

10-Day Weather Forecast

Almanac

Astronomy

Jul. 28, 2016 Rise Set
Actual Time
Civil Twilight
Nautical Twilight
Astronomical Twilight
Moon
Length of Visible Light
Length of Day
Tomorrow will be .
, % of the Moon is Illuminated

Today's Extremes

State Highs State Lows

Community

WunderPhotos

Upload Photos

1,928,070 photos uploaded!

WunderBlog® & News

Nearby

Air Quality

  Air Quality AQ Index Pollutant
Not available.

Snow Depth

Station Depth Elevation

Earthquake Activity

City Distance Mag. Time & Date
Minimum magnitude displayed is 2.5.

Coastal Water Temperatures

Place Temperature

Stations

Nearby Weather Stations

Station Location Temp. Windchill Dew Point Humidity Wind Precip. Elev Updated Type
                   

Watches & Warnings

There are currently no watches in effect.